KLRJ/LRJ METAR and TAF weather

Enter ICAO airport designator
Station Type Date Time Source
KLRJ METAR 2020/04/10 18:15 UTC NOAA

KLRJ 101815Z AUTO 19009G19KT 160V220 10SM SCT090 08/M08 A3001 RMK AO2


Station Type Date Time Source
KLRJ Decoded METAR 2020/04/10 18:15 UTC NOAA

Le Mars, Le Mars Municipal Airport, IA, United States (KLRJ) 42-46-41N 096-11-37W
Apr 10, 2020 - 02:15 PM EDT / 2020.04.10 1815 UTC
Wind: from the S (190 degrees) at 10 MPH (9 KT) gusting to 22 MPH (19 KT) (direction variable):0
Visibility: 10 mile(s):0
Sky conditions: partly cloudy
Temperature: 46 F (8 C)
Dew Point: 17 F (-8 C)
Relative Humidity: 31%
Pressure (altimeter): 30.01 in. Hg (1016 hPa)
ob: KLRJ 101815Z AUTO 19009G19KT 160V220 10SM SCT090 08/M08 A3001 RMK AO2
cycle: 18

Station Type Date Time Source
KLRJ TAF UTC NOAA

Error!

Example: see airport list